Time;durP1;ratioP1;P1;durP2;ratioP2;P2;SDS_P1;SDS_P2;PMS_P1;PMS_P2;Temp;Humidity;BMP_temperature;BMP_pressure;BME280_temperature;BME280_humidity;BME280_pressure;Samples;Min_cycle;Max_cycle;Signal;HPM_P1;HPM_P2
2021/07/28 00:01:09;;;;;;;;;;;17.40;99.90;;;;;;5035187;28;20444;-86
2021/07/28 00:03:34;;;;;;;;;;;17.40;99.90;;;;;;5049426;28;20403;-85
2021/07/28 00:06:00;;;;;;;;;;;17.40;99.90;;;;;;5054593;28;19908;-84
2021/07/28 00:08:27;;;;;;;;;;;17.40;99.90;;;;;;5051026;28;19978;-85
2021/07/28 00:10:53;;;;;;;;;;;17.40;99.90;;;;;;5055718;28;19920;-85
2021/07/28 00:13:18;;;;;;;;;;;17.40;99.90;;;;;;5054812;28;19913;-84
2021/07/28 00:15:44;;;;;;;;;;;17.40;99.90;;;;;;5054196;28;19966;-84
2021/07/28 00:18:16;;;;;;;;;;;17.40;99.90;;;;;;5053271;28;20415;-85
2021/07/28 00:23:14;;;;;;;;;;;17.30;99.90;;;;;;5054386;28;19944;-84
2021/07/28 00:25:40;;;;;;;;;;;17.30;99.90;;;;;;5047845;28;19920;-84
2021/07/28 00:28:05;;;;;;;;;;;17.30;99.90;;;;;;5038516;28;19909;-84
2021/07/28 00:30:31;;;;;;;;;;;17.20;99.90;;;;;;5037275;28;20003;-85
2021/07/28 00:32:56;;;;;;;;;;;17.20;99.90;;;;;;5058850;28;20389;-84
2021/07/28 00:35:22;;;;;;;;;;;17.10;99.90;;;;;;5053767;28;19948;-85
2021/07/28 00:37:47;;;;;;;;;;;17.10;99.90;;;;;;5055569;28;19913;-85
2021/07/28 00:40:13;;;;;;;;;;;17.00;99.90;;;;;;5054251;28;19948;-85
2021/07/28 00:42:39;;;;;;;;;;;17.00;99.90;;;;;;5036668;28;20327;-85
2021/07/28 00:45:04;;;;;;;;;;;16.90;99.90;;;;;;5055204;28;19916;-85
2021/07/28 00:47:30;;;;;;;;;;;16.90;99.90;;;;;;5055800;28;19919;-85
2021/07/28 00:49:55;;;;;;;;;;;16.90;99.90;;;;;;5038237;28;19923;-87
2021/07/28 00:52:21;;;;;;;;;;;16.80;99.90;;;;;;5051118;28;19913;-85
2021/07/28 00:54:47;;;;;;;;;;;16.80;99.90;;;;;;5045199;28;20432;-85
2021/07/28 00:57:13;;;;;;;;;;;16.70;99.90;;;;;;5054348;28;19921;-85
2021/07/28 00:59:38;;;;;;;;;;;16.70;99.90;;;;;;5044112;28;19939;-85
2021/07/28 01:02:04;;;;;;;;;;;16.70;99.90;;;;;;5037331;28;19931;-85
2021/07/28 01:04:29;;;;;;;;;;;16.60;99.90;;;;;;5045021;28;19951;-84
2021/07/28 01:06:56;;;;;;;;;;;16.60;99.90;;;;;;5052410;28;19913;-85
2021/07/28 01:09:21;;;;;;;;;;;16.60;99.90;;;;;;5044836;28;19919;-86
2021/07/28 01:11:47;;;;;;;;;;;16.60;99.90;;;;;;5052064;28;19934;-85
2021/07/28 01:14:12;;;;;;;;;;;16.60;99.90;;;;;;5053782;28;19909;-85
2021/07/28 01:16:39;;;;;;;;;;;16.50;99.90;;;;;;5052820;28;20407;-84
2021/07/28 01:19:05;;;;;;;;;;;16.50;99.90;;;;;;5047593;28;19913;-85
2021/07/28 01:21:31;;;;;;;;;;;16.50;99.90;;;;;;5053385;28;19916;-85
2021/07/28 01:23:57;;;;;;;;;;;16.50;99.90;;;;;;5030807;28;19920;-86
2021/07/28 01:26:23;;;;;;;;;;;16.50;99.90;;;;;;5047236;28;19919;-84
2021/07/28 01:28:48;;;;;;;;;;;16.50;99.90;;;;;;5017287;28;19945;-85
2021/07/28 01:31:15;;;;;;;;;;;16.50;99.90;;;;;;5045666;28;20425;-85
2021/07/28 01:33:42;;;;;;;;;;;16.50;99.90;;;;;;5039585;28;20395;-84
2021/07/28 01:36:08;;;;;;;;;;;16.50;99.90;;;;;;5054618;28;19919;-85
2021/07/28 01:38:34;;;;;;;;;;;16.40;99.90;;;;;;5055468;28;20343;-85
2021/07/28 01:41:04;;;;;;;;;;;16.40;99.90;;;;;;5049511;28;19939;-85
2021/07/28 01:43:30;;;;;;;;;;;16.40;99.90;;;;;;5037651;28;20411;-84
2021/07/28 01:45:56;;;;;;;;;;;16.40;99.90;;;;;;5053748;28;20007;-84
2021/07/28 01:48:22;;;;;;;;;;;16.30;99.90;;;;;;5053541;28;19948;-85
2021/07/28 01:50:47;;;;;;;;;;;16.30;99.90;;;;;;5035504;28;20562;-85
2021/07/28 01:53:14;;;;;;;;;;;16.30;99.90;;;;;;5016362;28;19931;-86
2021/07/28 01:55:40;;;;;;;;;;;16.20;99.90;;;;;;5035710;28;19912;-85
2021/07/28 01:58:05;;;;;;;;;;;16.20;99.90;;;;;;5033004;28;19913;-85
2021/07/28 02:00:31;;;;;;;;;;;16.20;99.90;;;;;;5050920;28;19912;-85
2021/07/28 02:03:03;;;;;;;;;;;16.20;99.90;;;;;;5055888;28;19921;-85
2021/07/28 02:05:29;;;;;;;;;;;16.20;99.90;;;;;;5053626;28;20263;-84
2021/07/28 02:07:55;;;;;;;;;;;16.30;99.90;;;;;;5048890;28;20373;-85
2021/07/28 02:10:20;;;;;;;;;;;16.30;99.90;;;;;;5034202;28;19915;-85
2021/07/28 02:12:45;;;;;;;;;;;16.40;99.90;;;;;;5019935;28;20274;-86
2021/07/28 02:15:11;;;;;;;;;;;16.40;99.90;;;;;;5048229;28;19988;-85
2021/07/28 02:17:36;;;;;;;;;;;16.40;99.90;;;;;;5033977;28;19916;-85
2021/07/28 02:20:02;;;;;;;;;;;16.40;99.90;;;;;;5053036;28;20368;-85
2021/07/28 02:22:28;;;;;;;;;;;16.40;99.90;;;;;;5051891;28;20011;-85
2021/07/28 02:24:53;;;;;;;;;;;16.40;99.90;;;;;;5054114;28;19916;-85
2021/07/28 02:27:18;;;;;;;;;;;16.40;99.90;;;;;;5047555;28;19917;-85
2021/07/28 02:29:44;;;;;;;;;;;16.50;99.90;;;;;;5016268;28;20496;-84
2021/07/28 02:32:09;;;;;;;;;;;16.50;99.90;;;;;;5046310;28;19921;-85
2021/07/28 02:34:35;;;;;;;;;;;16.50;99.90;;;;;;5035400;28;19916;-85
2021/07/28 02:37:00;;;;;;;;;;;16.50;99.90;;;;;;5020694;28;19982;-85
2021/07/28 02:39:26;;;;;;;;;;;16.60;99.90;;;;;;5025997;28;20388;-85
2021/07/28 02:41:51;;;;;;;;;;;16.60;99.90;;;;;;5053749;28;20273;-86
2021/07/28 02:44:17;;;;;;;;;;;16.70;99.90;;;;;;5053708;28;19917;-85
2021/07/28 02:46:42;;;;;;;;;;;16.70;99.90;;;;;;5035312;28;19913;-85
2021/07/28 02:49:09;;;;;;;;;;;16.70;99.90;;;;;;5052483;28;20008;-86
2021/07/28 02:51:34;;;;;;;;;;;16.80;99.90;;;;;;5051322;28;19947;-85
2021/07/28 02:54:00;;;;;;;;;;;16.80;99.90;;;;;;5051171;28;19920;-85
2021/07/28 02:56:25;;;;;;;;;;;16.90;99.90;;;;;;5047660;28;20293;-85
2021/07/28 02:58:51;;;;;;;;;;;16.90;99.90;;;;;;5035461;28;19909;-85
2021/07/28 03:01:16;;;;;;;;;;;17.00;99.90;;;;;;5043872;28;20004;-85
2021/07/28 03:03:42;;;;;;;;;;;17.00;99.90;;;;;;5051055;28;20418;-85
2021/07/28 03:06:07;;;;;;;;;;;17.00;99.90;;;;;;5046956;28;19920;-85
2021/07/28 03:08:32;;;;;;;;;;;17.00;99.90;;;;;;5054784;28;19912;-84
2021/07/28 03:10:59;;;;;;;;;;;17.00;99.90;;;;;;5055384;28;20515;-84
2021/07/28 03:13:24;;;;;;;;;;;17.10;99.90;;;;;;5055743;28;19913;-85
2021/07/28 03:15:50;;;;;;;;;;;17.00;99.90;;;;;;5057233;28;19909;-85
2021/07/28 03:18:15;;;;;;;;;;;17.00;99.90;;;;;;5049513;28;20562;-84
2021/07/28 03:20:43;;;;;;;;;;;17.00;99.90;;;;;;5020584;28;19909;-84
2021/07/28 03:23:08;;;;;;;;;;;17.00;99.90;;;;;;5032871;28;19975;-85
2021/07/28 03:25:33;;;;;;;;;;;17.00;99.90;;;;;;5037313;28;20378;-85
2021/07/28 03:27:59;;;;;;;;;;;16.90;99.90;;;;;;5043558;28;20361;-84
2021/07/28 03:30:24;;;;;;;;;;;16.90;99.90;;;;;;5019959;28;20293;-84
2021/07/28 03:32:50;;;;;;;;;;;16.90;99.90;;;;;;5048001;28;20008;-85
2021/07/28 03:35:15;;;;;;;;;;;16.90;99.90;;;;;;5037173;28;19980;-86
2021/07/28 03:37:41;;;;;;;;;;;16.80;99.90;;;;;;5028884;28;19917;-85
2021/07/28 03:40:06;;;;;;;;;;;16.80;99.90;;;;;;5045434;28;19920;-85
2021/07/28 03:42:32;;;;;;;;;;;16.70;99.90;;;;;;5023539;28;19960;-87
2021/07/28 03:44:58;;;;;;;;;;;16.70;99.90;;;;;;5053625;28;19919;-84
2021/07/28 03:47:24;;;;;;;;;;;16.70;99.90;;;;;;5056577;28;20343;-85
2021/07/28 03:49:50;;;;;;;;;;;16.70;99.90;;;;;;5057077;28;19955;-85
2021/07/28 03:52:17;;;;;;;;;;;16.70;99.90;;;;;;5056432;28;19939;-85
2021/07/28 03:54:43;;;;;;;;;;;16.80;99.90;;;;;;5034799;28;19921;-85
2021/07/28 03:57:10;;;;;;;;;;;16.80;99.90;;;;;;5048082;28;19920;-84
2021/07/28 03:59:38;;;;;;;;;;;16.90;99.90;;;;;;5055636;28;19917;-84
2021/07/28 04:02:04;;;;;;;;;;;16.90;99.90;;;;;;5055183;28;20023;-84
2021/07/28 04:04:29;;;;;;;;;;;17.00;99.90;;;;;;5056202;28;19928;-84
2021/07/28 04:06:55;;;;;;;;;;;17.00;99.90;;;;;;5038381;28;20553;-84
2021/07/28 04:09:20;;;;;;;;;;;17.00;99.90;;;;;;5043781;28;19963;-83
2021/07/28 04:11:46;;;;;;;;;;;17.00;99.90;;;;;;5044003;28;19948;-85
2021/07/28 04:14:11;;;;;;;;;;;17.10;99.90;;;;;;5045080;28;19920;-83
2021/07/28 04:16:39;;;;;;;;;;;17.10;99.90;;;;;;5035915;28;20334;-83
2021/07/28 04:19:04;;;;;;;;;;;17.20;99.90;;;;;;5054695;28;20327;-82
2021/07/28 04:21:30;;;;;;;;;;;17.20;99.90;;;;;;5057752;28;19909;-83
2021/07/28 04:23:55;;;;;;;;;;;17.30;99.90;;;;;;5050861;28;20388;-82
2021/07/28 04:26:21;;;;;;;;;;;17.30;99.90;;;;;;5048678;28;19963;-83
2021/07/28 04:28:47;;;;;;;;;;;17.30;99.90;;;;;;5040298;28;19913;-83
2021/07/28 04:31:12;;;;;;;;;;;17.30;99.90;;;;;;5025965;28;20001;-83
2021/07/28 04:33:38;;;;;;;;;;;17.40;99.90;;;;;;5040267;28;19921;-83
2021/07/28 04:36:03;;;;;;;;;;;17.40;99.90;;;;;;5051336;28;20321;-82
2021/07/28 04:38:29;;;;;;;;;;;17.40;99.90;;;;;;5059500;28;19940;-82
2021/07/28 04:40:54;;;;;;;;;;;17.40;99.90;;;;;;5041123;28;19909;-83
2021/07/28 04:43:20;;;;;;;;;;;17.40;99.90;;;;;;5058310;28;19916;-83
2021/07/28 04:45:45;;;;;;;;;;;17.50;99.90;;;;;;5048311;28;19920;-84
2021/07/28 04:48:11;;;;;;;;;;;17.50;99.90;;;;;;5028636;28;20383;-85
2021/07/28 04:50:36;;;;;;;;;;;17.50;99.90;;;;;;5035861;28;19920;-85
2021/07/28 04:53:02;;;;;;;;;;;17.50;99.90;;;;;;5047158;28;19971;-83
2021/07/28 04:55:28;;;;;;;;;;;17.60;99.90;;;;;;5041082;28;19909;-83
2021/07/28 04:57:53;;;;;;;;;;;17.60;99.90;;;;;;5058272;28;19956;-83
2021/07/28 05:00:19;;;;;;;;;;;17.70;99.90;;;;;;5059746;28;19913;-83
2021/07/28 05:02:44;;;;;;;;;;;17.70;99.90;;;;;;5056239;28;19919;-83
2021/07/28 05:05:10;;;;;;;;;;;17.70;99.90;;;;;;5036428;28;19917;-83
2021/07/28 05:07:35;;;;;;;;;;;17.80;99.90;;;;;;5055887;28;19928;-83
2021/07/28 05:10:01;;;;;;;;;;;17.80;99.90;;;;;;5055620;28;19913;-83
2021/07/28 05:12:27;;;;;;;;;;;17.90;99.90;;;;;;5050424;28;19913;-83
2021/07/28 05:14:52;;;;;;;;;;;18.00;99.90;;;;;;5057433;28;19909;-84
2021/07/28 05:17:20;;;;;;;;;;;18.00;99.90;;;;;;5043585;28;20535;-83
2021/07/28 05:19:45;;;;;;;;;;;18.00;99.90;;;;;;5054743;28;19913;-84
2021/07/28 05:22:11;;;;;;;;;;;18.00;99.90;;;;;;5045837;28;20024;-83
2021/07/28 05:24:36;;;;;;;;;;;18.00;99.90;;;;;;5037168;28;19913;-83
2021/07/28 05:27:02;;;;;;;;;;;18.00;99.90;;;;;;5052362;28;19921;-84
2021/07/28 05:29:28;;;;;;;;;;;18.10;99.90;;;;;;5040837;28;20449;-83
2021/07/28 05:31:53;;;;;;;;;;;18.20;99.90;;;;;;5017693;28;19929;-85
2021/07/28 05:34:19;;;;;;;;;;;18.20;99.90;;;;;;5052113;28;19916;-83
2021/07/28 05:36:44;;;;;;;;;;;18.30;99.90;;;;;;5058188;28;19971;-83
2021/07/28 05:39:10;;;;;;;;;;;18.30;99.90;;;;;;5057938;28;20286;-83
2021/07/28 05:41:35;;;;;;;;;;;18.30;99.90;;;;;;5040022;28;19912;-83
2021/07/28 05:44:07;;;;;;;;;;;18.30;99.90;;;;;;5060224;28;19921;-84
2021/07/28 05:46:32;;;;;;;;;;;18.30;99.90;;;;;;5039543;28;19919;-83
2021/07/28 05:48:58;;;;;;;;;;;18.30;99.90;;;;;;5046825;28;19999;-84
2021/07/28 05:51:23;;;;;;;;;;;18.40;99.90;;;;;;5046684;28;19919;-84
2021/07/28 05:53:49;;;;;;;;;;;18.50;99.90;;;;;;5024021;28;19924;-84
2021/07/28 05:56:14;;;;;;;;;;;18.70;99.90;;;;;;5055009;28;20015;-84
2021/07/28 05:58:39;;;;;;;;;;;18.80;99.90;;;;;;5041548;28;19916;-84
2021/07/28 06:01:05;;;;;;;;;;;18.90;99.90;;;;;;5055360;28;20451;-84
2021/07/28 06:03:30;;;;;;;;;;;18.80;99.90;;;;;;5054103;28;19916;-84
2021/07/28 06:05:56;;;;;;;;;;;18.80;99.90;;;;;;5056808;28;19913;-84
2021/07/28 06:08:22;;;;;;;;;;;18.80;99.90;;;;;;5025446;28;19921;-84
2021/07/28 06:10:47;;;;;;;;;;;18.90;99.90;;;;;;5050260;28;19936;-83
2021/07/28 06:13:13;;;;;;;;;;;18.90;99.90;;;;;;5036541;28;19913;-83
2021/07/28 06:15:38;;;;;;;;;;;18.90;99.90;;;;;;5047630;28;19952;-83
2021/07/28 06:18:04;;;;;;;;;;;18.90;99.90;;;;;;5057284;28;19943;-82
2021/07/28 06:20:29;;;;;;;;;;;19.00;99.90;;;;;;5058199;28;19928;-83
2021/07/28 06:22:56;;;;;;;;;;;19.10;99.90;;;;;;5045046;28;20433;-83
2021/07/28 06:25:22;;;;;;;;;;;19.30;99.90;;;;;;5043749;28;19920;-83
2021/07/28 06:27:49;;;;;;;;;;;19.60;99.90;;;;;;5054155;28;19919;-84
2021/07/28 06:30:15;;;;;;;;;;;20.10;99.90;;;;;;5051428;28;19974;-83
2021/07/28 06:32:43;;;;;;;;;;;20.60;99.90;;;;;;5023821;28;19917;-84
2021/07/28 06:35:09;;;;;;;;;;;21.10;99.90;;;;;;5023338;28;19923;-83
2021/07/28 06:37:34;;;;;;;;;;;21.60;99.90;;;;;;5040430;28;19917;-83
2021/07/28 06:40:00;;;;;;;;;;;21.90;99.90;;;;;;5051278;28;19913;-84
2021/07/28 06:42:25;;;;;;;;;;;21.90;99.90;;;;;;5056389;28;20173;-83
2021/07/28 06:44:52;;;;;;;;;;;21.90;99.90;;;;;;5055587;28;20363;-84
2021/07/28 06:47:18;;;;;;;;;;;22.90;99.90;;;;;;5044443;28;19913;-82
2021/07/28 06:49:44;;;;;;;;;;;22.90;99.90;;;;;;5041884;28;20694;-82
2021/07/28 06:52:09;;;;;;;;;;;22.40;99.90;;;;;;5052695;28;19913;-82
2021/07/28 06:54:34;;;;;;;;;;;21.60;99.90;;;;;;5051195;28;19995;-82
2021/07/28 06:57:00;;;;;;;;;;;20.90;99.90;;;;;;5053095;28;19917;-82
2021/07/28 06:59:25;;;;;;;;;;;20.40;99.90;;;;;;5053093;28;19913;-82
2021/07/28 07:01:51;;;;;;;;;;;19.90;99.90;;;;;;5040436;28;19913;-82
2021/07/28 07:04:16;;;;;;;;;;;19.60;99.90;;;;;;5047614;28;19913;-81
2021/07/28 07:06:42;;;;;;;;;;;19.40;99.90;;;;;;5046751;28;19956;-81
2021/07/28 07:09:07;;;;;;;;;;;19.20;99.90;;;;;;5052413;28;19939;-85
2021/07/28 07:11:33;;;;;;;;;;;19.00;99.90;;;;;;5055511;28;19976;-83
2021/07/28 07:13:58;;;;;;;;;;;18.90;99.90;;;;;;5052730;28;20389;-82
2021/07/28 07:16:24;;;;;;;;;;;18.80;99.90;;;;;;5054069;28;19916;-82
2021/07/28 07:18:49;;;;;;;;;;;18.70;99.90;;;;;;5052075;28;20376;-83
2021/07/28 07:21:15;;;;;;;;;;;18.70;99.90;;;;;;5052247;28;20004;-82
2021/07/28 07:23:40;;;;;;;;;;;18.60;99.90;;;;;;5045064;28;19983;-83
2021/07/28 07:26:06;;;;;;;;;;;18.50;99.90;;;;;;5051877;28;19913;-83
2021/07/28 07:28:31;;;;;;;;;;;18.60;99.90;;;;;;5038695;28;20390;-83
2021/07/28 07:30:57;;;;;;;;;;;18.70;99.90;;;;;;5032102;28;19938;-82
2021/07/28 07:33:38;;;;;;;;;;;18.90;99.90;;;;;;5051722;28;20316;-82
2021/07/28 07:36:04;;;;;;;;;;;18.90;99.90;;;;;;5043328;28;19936;-84
2021/07/28 07:38:30;;;;;;;;;;;18.90;99.90;;;;;;5049547;28;19982;-85
2021/07/28 07:40:55;;;;;;;;;;;18.90;99.90;;;;;;5049412;28;19913;-83
2021/07/28 07:43:21;;;;;;;;;;;18.90;99.90;;;;;;5053716;28;19924;-84
2021/07/28 07:45:46;;;;;;;;;;;19.10;99.90;;;;;;5048313;28;19913;-84
2021/07/28 07:48:12;;;;;;;;;;;19.50;99.90;;;;;;5047480;28;19913;-84
2021/07/28 07:50:37;;;;;;;;;;;20.50;99.90;;;;;;5054302;28;20016;-85
2021/07/28 07:53:03;;;;;;;;;;;24.70;99.90;;;;;;5060591;28;19917;-86
2021/07/28 07:55:29;;;;;;;;;;;31.00;99.90;;;;;;5044541;28;19916;-84
2021/07/28 07:57:54;;;;;;;;;;;35.40;96.30;;;;;;5059915;28;20285;-82
2021/07/28 08:00:20;;;;;;;;;;;38.70;83.40;;;;;;5053539;28;19919;-84
2021/07/28 08:02:45;;;;;;;;;;;41.20;69.60;;;;;;5049507;28;20362;-85
2021/07/28 08:05:11;;;;;;;;;;;43.30;61.20;;;;;;5034640;28;19905;-84
2021/07/28 08:07:36;;;;;;;;;;;44.10;55.90;;;;;;5042195;28;19908;-84
2021/07/28 08:10:02;;;;;;;;;;;44.60;53.00;;;;;;5068854;28;19952;-85
2021/07/28 08:12:27;;;;;;;;;;;45.20;52.50;;;;;;5043782;28;19909;-84
2021/07/28 08:14:53;;;;;;;;;;;45.40;50.90;;;;;;5035637;28;19909;-84
2021/07/28 08:17:18;;;;;;;;;;;45.80;50.00;;;;;;5052226;28;20349;-84
2021/07/28 08:19:44;;;;;;;;;;;46.70;48.30;;;;;;5055288;28;19911;-85
2021/07/28 08:22:09;;;;;;;;;;;47.50;46.60;;;;;;5054494;28;19908;-84
2021/07/28 08:24:35;;;;;;;;;;;47.90;45.80;;;;;;5040448;28;19943;-85
2021/07/28 08:27:00;;;;;;;;;;;48.50;44.90;;;;;;5050500;28;19909;-84
2021/07/28 08:29:26;;;;;;;;;;;48.60;44.10;;;;;;5054808;28;20383;-84
2021/07/28 08:31:51;;;;;;;;;;;48.90;43.50;;;;;;5053558;28;19913;-85
2021/07/28 08:34:16;;;;;;;;;;;48.90;43.70;;;;;;5047902;28;20001;-84
2021/07/28 08:36:42;;;;;;;;;;;48.50;43.20;;;;;;5055380;28;19917;-84
2021/07/28 08:39:08;;;;;;;;;;;44.80;44.30;;;;;;5048988;28;20003;-83
2021/07/28 08:41:34;;;;;;;;;;;44.50;46.30;;;;;;5038637;28;19946;-84
2021/07/28 08:44:00;;;;;;;;;;;43.70;46.80;;;;;;5048252;28;20262;-84
2021/07/28 08:46:26;;;;;;;;;;;42.40;47.60;;;;;;5063709;28;19921;-84
2021/07/28 08:48:52;;;;;;;;;;;42.50;49.10;;;;;;5056335;28;19913;-84
2021/07/28 08:51:18;;;;;;;;;;;43.90;47.90;;;;;;5053610;28;19919;-83
2021/07/28 08:53:43;;;;;;;;;;;41.90;48.60;;;;;;5053398;28;19967;-83
2021/07/28 08:56:09;;;;;;;;;;;42.60;49.70;;;;;;5053484;28;19920;-84
2021/07/28 08:58:34;;;;;;;;;;;41.70;49.80;;;;;;5034545;28;19936;-84
2021/07/28 09:01:00;;;;;;;;;;;41.30;50.80;;;;;;5047831;28;19913;-82
2021/07/28 09:03:25;;;;;;;;;;;39.60;51.30;;;;;;5049870;28;19921;-84
2021/07/28 09:05:52;;;;;;;;;;;40.20;50.80;;;;;;5041391;28;19921;-84
2021/07/28 09:08:28;;;;;;;;;;;37.90;52.20;;;;;;5021947;28;20392;-83
2021/07/28 09:10:53;;;;;;;;;;;36.40;55.30;;;;;;5043433;28;19917;-83
2021/07/28 09:13:26;;;;;;;;;;;35.00;54.70;;;;;;5056549;28;20043;-82
2021/07/28 09:15:53;;;;;;;;;;;33.90;55.90;;;;;;5040548;28;19916;-83
2021/07/28 09:18:29;;;;;;;;;;;33.50;56.80;;;;;;5056989;28;20484;-83
2021/07/28 09:20:54;;;;;;;;;;;35.60;55.00;;;;;;5052133;28;19913;-82
2021/07/28 09:23:20;;;;;;;;;;;35.10;53.70;;;;;;5061156;28;19990;-83
2021/07/28 09:25:52;;;;;;;;;;;33.60;54.60;;;;;;5057558;28;19913;-83
2021/07/28 09:28:19;;;;;;;;;;;32.20;55.60;;;;;;5061414;28;19920;-83
2021/07/28 09:30:45;;;;;;;;;;;32.20;55.80;;;;;;5042355;28;19913;-83
2021/07/28 09:33:11;;;;;;;;;;;31.90;55.40;;;;;;5056328;28;19971;-85
2021/07/28 09:35:54;;;;;;;;;;;31.10;55.70;;;;;;5055716;28;19913;-83
2021/07/28 09:38:31;;;;;;;;;;;30.90;55.70;;;;;;5063484;28;19924;-83
2021/07/28 09:41:10;;;;;;;;;;;32.50;55.70;;;;;;5039947;28;19913;-83
2021/07/28 09:43:42;;;;;;;;;;;33.30;53.90;;;;;;5052520;28;19917;-84
2021/07/28 09:46:20;;;;;;;;;;;34.10;52.70;;;;;;5042296;28;19952;-84
2021/07/28 09:48:45;;;;;;;;;;;35.30;51.00;;;;;;5043937;28;19913;-84
2021/07/28 09:51:24;;;;;;;;;;;37.00;49.30;;;;;;5039333;28;19980;-83
2021/07/28 09:53:53;;;;;;;;;;;36.50;49.80;;;;;;5057406;28;19909;-83
2021/07/28 09:56:30;;;;;;;;;;;35.60;49.90;;;;;;5056029;28;19924;-83
2021/07/28 09:58:56;;;;;;;;;;;35.10;50.10;;;;;;5052032;28;19917;-84
2021/07/28 10:01:22;;;;;;;;;;;35.90;50.10;;;;;;5057972;28;19909;-83
2021/07/28 10:03:48;;;;;;;;;;;35.50;50.20;;;;;;5051460;28;19931;-83
2021/07/28 10:06:16;;;;;;;;;;;34.40;50.30;;;;;;5058548;28;19921;-84
2021/07/28 10:08:41;;;;;;;;;;;33.40;50.80;;;;;;5052249;28;20720;-83
2021/07/28 10:11:07;;;;;;;;;;;33.20;50.90;;;;;;5038594;28;19959;-83
2021/07/28 10:13:33;;;;;;;;;;;33.70;51.40;;;;;;5057785;28;19913;-83
2021/07/28 10:15:58;;;;;;;;;;;33.90;50.60;;;;;;5047279;28;19973;-84
2021/07/28 10:18:24;;;;;;;;;;;34.30;49.50;;;;;;5055256;28;19916;-83
2021/07/28 10:20:50;;;;;;;;;;;34.50;48.80;;;;;;5056273;28;19927;-84
2021/07/28 10:23:15;;;;;;;;;;;34.80;49.10;;;;;;5048060;28;19958;-83
2021/07/28 10:25:41;;;;;;;;;;;34.00;49.10;;;;;;5056371;28;19917;-84
2021/07/28 10:28:06;;;;;;;;;;;34.90;49.00;;;;;;5054547;28;19912;-84
2021/07/28 10:30:32;;;;;;;;;;;35.10;48.50;;;;;;5050909;28;20532;-83
2021/07/28 10:32:57;;;;;;;;;;;34.70;48.00;;;;;;5038978;28;19917;-83
2021/07/28 10:35:28;;;;;;;;;;;34.80;47.80;;;;;;5052007;28;19927;-83
2021/07/28 10:37:58;;;;;;;;;;;33.70;47.50;;;;;;5035882;28;23474;-83
2021/07/28 10:40:23;;;;;;;;;;;32.70;48.30;;;;;;5060596;28;20019;-83
2021/07/28 10:42:49;;;;;;;;;;;31.90;48.80;;;;;;5060506;28;19956;-83
2021/07/28 10:45:17;;;;;;;;;;;31.70;48.70;;;;;;5060938;28;20312;-83
2021/07/28 10:47:44;;;;;;;;;;;32.30;48.40;;;;;;5060710;28;19913;-83
2021/07/28 10:50:22;;;;;;;;;;;32.20;48.00;;;;;;5062420;28;19913;-83
2021/07/28 10:52:51;;;;;;;;;;;32.40;48.20;;;;;;5049328;28;19920;-83
2021/07/28 10:55:20;;;;;;;;;;;31.50;47.90;;;;;;5059140;28;19913;-83
2021/07/28 10:57:48;;;;;;;;;;;31.20;48.00;;;;;;5060046;28;19928;-85
2021/07/28 11:00:33;;;;;;;;;;;30.70;47.90;;;;;;5045715;28;19912;-84
2021/07/28 11:02:59;;;;;;;;;;;30.30;48.30;;;;;;5051759;28;19913;-82
2021/07/28 11:05:25;;;;;;;;;;;30.20;48.70;;;;;;5063135;28;19913;-83
2021/07/28 11:08:07;;;;;;;;;;;29.90;48.50;;;;;;5060185;28;19936;-82
2021/07/28 11:10:34;;;;;;;;;;;30.90;49.00;;;;;;5043304;28;19932;-83
2021/07/28 11:13:03;;;;;;;;;;;32.70;46.40;;;;;;5058713;28;20011;-83
2021/07/28 11:15:29;;;;;;;;;;;33.80;45.20;;;;;;5049147;28;20174;-82
2021/07/28 11:17:55;;;;;;;;;;;34.30;45.70;;;;;;5063330;28;19923;-83
2021/07/28 11:20:27;;;;;;;;;;;32.80;45.30;;;;;;5039769;28;19936;-82
2021/07/28 11:22:52;;;;;;;;;;;32.50;45.90;;;;;;5053538;28;19989;-82
2021/07/28 11:25:18;;;;;;;;;;;33.00;46.00;;;;;;5043080;28;20397;-83
2021/07/28 11:28:02;;;;;;;;;;;34.70;44.40;;;;;;5041120;28;19958;-83
2021/07/28 11:30:28;;;;;;;;;;;34.90;43.20;;;;;;5061020;28;19935;-83
2021/07/28 11:32:53;;;;;;;;;;;34.70;43.20;;;;;;5046114;28;19945;-85
2021/07/28 11:35:19;;;;;;;;;;;34.00;43.10;;;;;;5056806;28;19913;-86
2021/07/28 11:37:44;;;;;;;;;;;34.60;43.00;;;;;;5042538;28;20007;-83
2021/07/28 11:40:10;;;;;;;;;;;35.70;42.40;;;;;;5049451;28;19913;-84
2021/07/28 11:42:35;;;;;;;;;;;36.70;41.80;;;;;;5049796;28;19920;-84
2021/07/28 11:45:01;;;;;;;;;;;37.30;41.00;;;;;;5043440;28;19921;-84
2021/07/28 11:47:27;;;;;;;;;;;37.80;40.30;;;;;;5044707;28;19920;-84
2021/07/28 11:50:00;;;;;;;;;;;38.10;39.50;;;;;;5058390;28;19909;-82
2021/07/28 11:52:26;;;;;;;;;;;38.10;38.90;;;;;;5055857;28;20495;-84
2021/07/28 11:54:52;;;;;;;;;;;38.10;38.40;;;;;;5057199;28;19951;-84
2021/07/28 11:57:17;;;;;;;;;;;37.90;37.90;;;;;;5044881;28;19936;-84
2021/07/28 11:59:43;;;;;;;;;;;37.90;37.80;;;;;;5045366;28;19982;-84
2021/07/28 12:02:17;;;;;;;;;;;37.50;37.00;;;;;;5041136;28;20012;-83
2021/07/28 12:04:46;;;;;;;;;;;36.50;37.20;;;;;;5056912;28;20003;-83
2021/07/28 12:07:12;;;;;;;;;;;35.40;37.80;;;;;;5064118;28;20342;-83
2021/07/28 12:09:38;;;;;;;;;;;35.80;38.20;;;;;;5049221;28;20288;-83
2021/07/28 12:12:15;;;;;;;;;;;36.30;37.60;;;;;;5057655;28;19913;-84
2021/07/28 12:14:45;;;;;;;;;;;36.70;37.30;;;;;;5060968;28;19913;-83
2021/07/28 12:17:17;;;;;;;;;;;36.90;36.70;;;;;;5064953;28;19912;-84
2021/07/28 12:20:14;;;;;;;;;;;37.00;36.40;;;;;;5063502;28;19944;-83
2021/07/28 12:22:40;;;;;;;;;;;37.00;35.90;;;;;;5033456;28;19913;-83
2021/07/28 12:25:15;;;;;;;;;;;37.30;35.80;;;;;;5046232;28;19909;-84
2021/07/28 12:27:52;;;;;;;;;;;37.10;35.40;;;;;;5050204;28;20003;-83
2021/07/28 12:30:20;;;;;;;;;;;37.20;35.30;;;;;;5051538;28;20320;-83
2021/07/28 12:32:58;;;;;;;;;;;36.80;35.40;;;;;;5068173;28;19909;-83
2021/07/28 12:35:28;;;;;;;;;;;35.50;36.00;;;;;;5058008;28;19920;-82
2021/07/28 12:38:10;;;;;;;;;;;34.90;36.80;;;;;;5049669;28;19928;-83
2021/07/28 12:40:36;;;;;;;;;;;34.50;36.50;;;;;;5049580;28;19920;-82
2021/07/28 12:43:03;;;;;;;;;;;33.20;37.20;;;;;;5050124;28;20373;-82
2021/07/28 12:45:28;;;;;;;;;;;32.00;38.30;;;;;;5058944;28;19921;-82
2021/07/28 12:47:54;;;;;;;;;;;31.20;38.80;;;;;;5064611;28;20354;-82
2021/07/28 12:50:19;;;;;;;;;;;30.50;39.30;;;;;;5041480;28;20371;-84
2021/07/28 12:52:45;;;;;;;;;;;29.70;39.80;;;;;;5060473;28;20381;-84
2021/07/28 12:55:10;;;;;;;;;;;29.30;40.50;;;;;;5062725;28;19916;-83
2021/07/28 12:57:36;;;;;;;;;;;28.90;40.60;;;;;;5046688;28;19917;-84
2021/07/28 13:00:02;;;;;;;;;;;28.70;40.90;;;;;;5063204;28;20312;-84
2021/07/28 13:02:28;;;;;;;;;;;28.50;41.20;;;;;;5055095;28;20332;-85
2021/07/28 13:04:54;;;;;;;;;;;29.40;41.20;;;;;;5044779;28;19948;-85
2021/07/28 13:07:32;;;;;;;;;;;30.20;40.30;;;;;;5061187;28;19913;-85
2021/07/28 13:09:58;;;;;;;;;;;30.90;39.70;;;;;;5065271;28;19916;-85
2021/07/28 13:12:23;;;;;;;;;;;30.80;39.80;;;;;;5058549;28;19912;-85
2021/07/28 13:14:48;;;;;;;;;;;31.40;39.40;;;;;;5064182;28;19912;-85
2021/07/28 13:17:14;;;;;;;;;;;31.50;38.90;;;;;;5063477;28;19938;-85
2021/07/28 13:19:39;;;;;;;;;;;31.70;38.50;;;;;;5062064;28;19913;-85
2021/07/28 13:22:05;;;;;;;;;;;32.20;38.40;;;;;;5061444;28;20362;-85
2021/07/28 13:24:30;;;;;;;;;;;32.40;38.00;;;;;;5061347;28;19909;-85
2021/07/28 13:26:56;;;;;;;;;;;32.40;37.90;;;;;;5042813;28;19952;-85
2021/07/28 13:29:21;;;;;;;;;;;32.50;37.90;;;;;;5043852;28;19959;-85
2021/07/28 13:31:47;;;;;;;;;;;32.60;38.40;;;;;;5044341;28;19935;-85
2021/07/28 13:34:12;;;;;;;;;;;32.40;37.70;;;;;;5056403;28;19913;-84
2021/07/28 13:36:37;;;;;;;;;;;32.30;38.00;;;;;;5047020;28;19924;-84
2021/07/28 13:39:03;;;;;;;;;;;31.50;38.30;;;;;;5040634;28;19944;-85
2021/07/28 13:41:29;;;;;;;;;;;31.00;39.00;;;;;;5042083;28;19956;-84
2021/07/28 13:43:55;;;;;;;;;;;31.20;39.00;;;;;;5057991;28;19917;-84
2021/07/28 13:46:20;;;;;;;;;;;31.50;39.00;;;;;;5062514;28;19935;-84
2021/07/28 13:48:46;;;;;;;;;;;30.90;39.20;;;;;;5058600;28;19912;-85
2021/07/28 13:51:11;;;;;;;;;;;30.40;39.70;;;;;;5040861;28;20015;-84
2021/07/28 13:53:36;;;;;;;;;;;30.50;39.80;;;;;;5048765;28;20004;-85
2021/07/28 13:56:02;;;;;;;;;;;30.30;39.80;;;;;;5039872;28;19913;-85
2021/07/28 13:58:27;;;;;;;;;;;30.00;40.00;;;;;;5032308;28;19923;-84
2021/07/28 14:00:53;;;;;;;;;;;30.00;40.20;;;;;;5061340;28;19909;-85
2021/07/28 14:03:18;;;;;;;;;;;29.60;40.40;;;;;;5053714;28;19972;-84
2021/07/28 14:05:44;;;;;;;;;;;29.40;40.70;;;;;;5059808;28;19913;-85
2021/07/28 14:08:09;;;;;;;;;;;29.50;40.80;;;;;;5056990;28;19914;-84
2021/07/28 14:10:35;;;;;;;;;;;29.30;40.90;;;;;;5040018;28;19968;-84
2021/07/28 14:13:00;;;;;;;;;;;29.20;41.10;;;;;;5057672;28;19913;-84
2021/07/28 14:15:25;;;;;;;;;;;29.10;41.10;;;;;;5049994;28;19984;-84